Time;durP1;ratioP1;P1;durP2;ratioP2;P2;SDS_P1;SDS_P2;PMS_P1;PMS_P2;Temp;Humidity;BMP_temperature;BMP_pressure;BME280_temperature;BME280_humidity;BME280_pressure;Samples;Min_cycle;Max_cycle;Signal;HPM_P1;HPM_P2
2021/09/02 00:02:15;;;;;;;6.28;3.00;;;;;;;;;;4986879;28;20050;-65
2021/09/02 00:04:44;;;;;;;6.85;3.40;;;;;;;;;;4984093;28;20584;-65
2021/09/02 00:07:13;;;;;;;8.75;3.92;;;;;;;;;;4988807;28;20051;-65
2021/09/02 00:09:41;;;;;;;5.20;3.08;;;;;;;;;;4988274;28;20042;-65
2021/09/02 00:12:09;;;;;;;7.50;3.88;;;;;;;;;;4988977;28;20050;-65
2021/09/02 00:14:38;;;;;;;9.48;3.65;;;;;;;;;;4988141;28;20422;-66
2021/09/02 00:17:06;;;;;;;5.40;3.30;;;;;;;;;;4987138;28;20054;-65
2021/09/02 00:19:36;;;;;;;6.82;3.30;;;;;;;;;;4988963;28;20049;-65
2021/09/02 00:22:05;;;;;;;5.90;3.72;;;;;;;;;;4983024;28;20054;-65
2021/09/02 00:24:34;;;;;;;6.40;3.30;;;;;;;;;;4974652;28;20125;-65
2021/09/02 00:27:02;;;;;;;8.02;3.45;;;;;;;;;;4988618;28;20050;-66
2021/09/02 00:29:31;;;;;;;7.03;3.72;;;;;;;;;;4988726;28;20471;-65
2021/09/02 00:31:59;;;;;;;8.80;3.45;;;;;;;;;;4980739;28;20078;-66
2021/09/02 00:34:27;;;;;;;7.85;3.83;;;;;;;;;;4988205;28;20085;-65
2021/09/02 00:36:55;;;;;;;7.05;3.78;;;;;;;;;;4988934;28;20053;-65
2021/09/02 00:39:25;;;;;;;7.22;3.65;;;;;;;;;;4988695;28;20129;-65
2021/09/02 00:41:53;;;;;;;9.60;3.90;;;;;;;;;;4984943;28;20499;-65
2021/09/02 00:44:33;;;;;;;7.57;3.90;;;;;;;;;;4987435;28;20136;-65
2021/09/02 00:47:02;;;;;;;8.82;4.50;;;;;;;;;;4989006;28;20504;-65
2021/09/02 00:49:31;;;;;;;9.27;3.38;;;;;;;;;;4988465;28;20050;-65
2021/09/02 00:52:00;;;;;;;5.80;3.28;;;;;;;;;;4987474;28;20791;-65
2021/09/02 00:54:30;;;;;;;6.15;3.55;;;;;;;;;;4987272;28;20138;-65
2021/09/02 00:56:58;;;;;;;7.50;3.65;;;;;;;;;;4980477;28;20138;-65
2021/09/02 00:59:27;;;;;;;8.80;3.80;;;;;;;;;;4987623;28;20046;-65
2021/09/02 01:01:55;;;;;;;8.80;3.45;;;;;;;;;;4988134;28;20157;-66
2021/09/02 01:04:24;;;;;;;9.05;3.63;;;;;;;;;;4991530;23;20041;-72
2021/09/02 01:06:53;;;;;;;7.28;3.70;;;;;;;;;;4989317;28;20439;-70
2021/09/02 01:09:21;;;;;;;6.30;3.42;;;;;;;;;;5007931;28;20140;-69
2021/09/02 01:11:52;;;;;;;6.80;3.78;;;;;;;;;;5009059;28;20046;-70
2021/09/02 01:14:20;;;;;;;6.75;3.67;;;;;;;;;;5008876;28;20145;-67
2021/09/02 01:16:49;;;;;;;6.18;3.67;;;;;;;;;;5000553;28;20081;-69
2021/09/02 01:19:17;;;;;;;7.40;3.63;;;;;;;;;;4998245;28;20056;-69
2021/09/02 01:21:45;;;;;;;5.25;2.88;;;;;;;;;;4998840;28;20133;-68
2021/09/02 01:24:15;;;;;;;6.07;2.97;;;;;;;;;;5003133;28;20072;-67
2021/09/02 01:26:43;;;;;;;8.20;4.07;;;;;;;;;;5007587;28;20045;-69
2021/09/02 01:29:13;;;;;;;5.97;3.60;;;;;;;;;;5005664;28;20049;-67
2021/09/02 01:31:42;;;;;;;5.65;2.90;;;;;;;;;;5003564;28;20157;-67
2021/09/02 01:34:10;;;;;;;6.55;3.42;;;;;;;;;;5008771;28;20105;-67
2021/09/02 01:36:39;;;;;;;7.68;3.67;;;;;;;;;;5012634;28;20056;-67
2021/09/02 01:39:07;;;;;;;5.80;3.10;;;;;;;;;;5011883;28;20132;-70
2021/09/02 01:41:36;;;;;;;7.00;3.20;;;;;;;;;;5003005;28;20064;-68
2021/09/02 01:44:05;;;;;;;6.28;3.03;;;;;;;;;;5008534;28;20053;-67
2021/09/02 01:46:33;;;;;;;5.10;3.08;;;;;;;;;;5011655;28;20041;-67
2021/09/02 01:49:01;;;;;;;5.20;3.17;;;;;;;;;;5011423;28;20052;-67
2021/09/02 01:51:29;;;;;;;5.93;2.90;;;;;;;;;;5011298;28;20593;-67
2021/09/02 01:53:58;;;;;;;9.60;3.42;;;;;;;;;;5003367;28;20052;-67
2021/09/02 01:56:26;;;;;;;5.50;2.78;;;;;;;;;;4997187;28;20049;-70
2021/09/02 01:58:56;;;;;;;8.68;3.38;;;;;;;;;;5005944;28;20049;-73
2021/09/02 02:01:24;;;;;;;3.85;3.00;;;;;;;;;;5012259;28;20054;-71
2021/09/02 02:03:52;;;;;;;6.93;3.30;;;;;;;;;;5009715;28;20397;-71
2021/09/02 02:06:21;;;;;;;8.05;3.22;;;;;;;;;;5010707;28;20599;-67
2021/09/02 02:08:49;;;;;;;6.10;3.33;;;;;;;;;;5011167;28;20050;-67
2021/09/02 02:11:17;;;;;;;5.70;3.25;;;;;;;;;;5011818;28;20085;-67
2021/09/02 02:13:45;;;;;;;6.25;2.70;;;;;;;;;;5009713;28;20498;-67
2021/09/02 02:16:15;;;;;;;5.50;3.03;;;;;;;;;;5011054;28;20465;-70
2021/09/02 02:18:43;;;;;;;6.20;3.42;;;;;;;;;;5006934;28;20049;-67
2021/09/02 02:21:11;;;;;;;6.53;3.22;;;;;;;;;;5011143;28;20046;-67
2021/09/02 02:23:39;;;;;;;6.63;3.25;;;;;;;;;;5009443;28;20054;-68
2021/09/02 02:26:08;;;;;;;6.65;3.03;;;;;;;;;;5010408;28;20068;-67
2021/09/02 02:28:36;;;;;;;6.82;3.10;;;;;;;;;;5010709;28;20138;-67
2021/09/02 02:31:04;;;;;;;5.18;2.85;;;;;;;;;;5008206;28;20128;-67
2021/09/02 02:33:34;;;;;;;6.65;3.30;;;;;;;;;;5007741;28;20085;-68
2021/09/02 02:36:02;;;;;;;6.68;3.72;;;;;;;;;;4998942;28;20053;-68
2021/09/02 02:38:30;;;;;;;5.00;3.20;;;;;;;;;;4990987;28;20506;-67
2021/09/02 02:40:59;;;;;;;7.22;3.50;;;;;;;;;;5000907;28;20052;-68
2021/09/02 02:43:27;;;;;;;6.00;3.33;;;;;;;;;;5010546;28;20057;-71
2021/09/02 02:45:57;;;;;;;8.60;3.33;;;;;;;;;;5003660;28;20042;-73
2021/09/02 02:48:26;;;;;;;6.30;3.17;;;;;;;;;;5010537;28;20049;-71
2021/09/02 02:50:55;;;;;;;7.43;3.10;;;;;;;;;;5007467;28;20045;-70
2021/09/02 02:53:23;;;;;;;5.90;2.78;;;;;;;;;;5009748;28;20144;-70
2021/09/02 02:55:52;;;;;;;7.68;3.50;;;;;;;;;;5003767;28;20557;-67
2021/09/02 02:58:20;;;;;;;7.43;3.40;;;;;;;;;;5010952;28;20099;-67
2021/09/02 03:00:48;;;;;;;8.00;2.97;;;;;;;;;;5009283;28;20048;-67
2021/09/02 03:03:16;;;;;;;6.65;3.40;;;;;;;;;;5009810;28;20153;-68
2021/09/02 03:05:45;;;;;;;6.13;3.17;;;;;;;;;;5008617;28;20053;-68
2021/09/02 03:08:14;;;;;;;8.15;3.50;;;;;;;;;;5009315;28;20054;-69
2021/09/02 03:10:43;;;;;;;7.68;3.92;;;;;;;;;;5009452;28;20060;-67
2021/09/02 03:13:11;;;;;;;8.73;3.60;;;;;;;;;;4998690;28;20500;-67
2021/09/02 03:15:39;;;;;;;5.78;2.97;;;;;;;;;;5007090;28;20062;-67
2021/09/02 03:18:07;;;;;;;7.57;3.40;;;;;;;;;;5009001;28;20046;-67
2021/09/02 03:20:36;;;;;;;5.90;3.40;;;;;;;;;;5010061;28;20054;-73
2021/09/02 03:23:04;;;;;;;6.25;3.08;;;;;;;;;;5010650;28;20096;-67
2021/09/02 03:25:33;;;;;;;7.75;3.33;;;;;;;;;;5008141;28;20072;-69
2021/09/02 03:28:02;;;;;;;7.57;2.80;;;;;;;;;;5007467;28;20136;-67
2021/09/02 03:30:30;;;;;;;8.65;3.05;;;;;;;;;;5003028;28;20153;-67
2021/09/02 03:32:58;;;;;;;5.97;3.10;;;;;;;;;;5006007;28;20061;-69
2021/09/02 03:35:26;;;;;;;5.47;3.35;;;;;;;;;;5005353;28;20180;-71
2021/09/02 03:37:55;;;;;;;6.88;3.10;;;;;;;;;;5005639;28;20510;-73
2021/09/02 03:40:37;;;;;;;6.10;3.20;;;;;;;;;;2424841;28;10022821;-70
2021/09/02 03:43:05;;;;;;;6.53;2.95;;;;;;;;;;3625495;28;10001561;-69
2021/09/02 03:45:34;;;;;;;6.05;3.35;;;;;;;;;;5004175;28;20136;-70
2021/09/02 03:48:02;;;;;;;5.32;2.92;;;;;;;;;;5005062;28;20430;-69
2021/09/02 03:50:30;;;;;;;9.20;3.25;;;;;;;;;;5000897;28;20052;-70
2021/09/02 03:52:59;;;;;;;12.30;3.38;;;;;;;;;;5008838;28;20508;-67
2021/09/02 03:55:27;;;;;;;8.32;3.15;;;;;;;;;;5008234;28;20056;-70
2021/09/02 03:57:56;;;;;;;5.95;3.58;;;;;;;;;;5007731;28;20052;-69
2021/09/02 04:00:25;;;;;;;7.68;3.28;;;;;;;;;;5004790;28;20052;-69
2021/09/02 04:02:53;;;;;;;8.38;3.33;;;;;;;;;;5009717;28;20081;-67
2021/09/02 04:05:21;;;;;;;8.05;3.05;;;;;;;;;;5006710;28;20050;-70
2021/09/02 04:07:50;;;;;;;7.47;3.65;;;;;;;;;;5003383;28;20133;-68
2021/09/02 04:10:18;;;;;;;7.82;3.90;;;;;;;;;;5009577;28;20049;-69
2021/09/02 04:12:46;;;;;;;8.48;3.60;;;;;;;;;;5009189;28;20052;-67
2021/09/02 04:15:16;;;;;;;10.00;3.20;;;;;;;;;;5008952;28;20085;-72
2021/09/02 04:17:44;;;;;;;10.75;4.10;;;;;;;;;;5007731;28;20385;-67
2021/09/02 04:20:13;;;;;;;7.97;3.35;;;;;;;;;;5009376;28;20046;-67
2021/09/02 04:22:41;;;;;;;8.40;3.38;;;;;;;;;;5009311;28;20060;-70
2021/09/02 04:25:10;;;;;;;7.03;3.25;;;;;;;;;;5003473;28;20141;-67
2021/09/02 04:27:38;;;;;;;5.40;2.65;;;;;;;;;;5002257;28;20054;-68
2021/09/02 04:30:07;;;;;;;6.75;3.60;;;;;;;;;;5008955;28;20486;-73
2021/09/02 04:32:36;;;;;;;7.13;3.33;;;;;;;;;;5004776;28;20405;-67
2021/09/02 04:35:05;;;;;;;5.90;3.58;;;;;;;;;;5008045;28;20045;-74
2021/09/02 04:37:36;;;;;;;5.28;3.10;;;;;;;;;;5005844;28;20053;-68
2021/09/02 04:40:06;;;;;;;6.60;3.30;;;;;;;;;;5009356;28;20046;-67
2021/09/02 04:42:34;;;;;;;9.52;3.75;;;;;;;;;;5009217;28;20042;-67
2021/09/02 04:45:02;;;;;;;5.85;3.10;;;;;;;;;;5008967;28;20053;-70
2021/09/02 04:47:31;;;;;;;6.57;3.05;;;;;;;;;;5007046;28;20041;-66
2021/09/02 04:50:01;;;;;;;5.65;3.28;;;;;;;;;;5008993;28;20052;-68
2021/09/02 04:52:29;;;;;;;6.85;3.15;;;;;;;;;;5007700;28;20129;-70
2021/09/02 04:54:57;;;;;;;6.80;3.40;;;;;;;;;;5008473;28;20498;-67
2021/09/02 04:57:26;;;;;;;6.75;3.28;;;;;;;;;;5001650;28;20570;-74
2021/09/02 04:59:54;;;;;;;14.52;3.85;;;;;;;;;;5009707;28;20072;-71
2021/09/02 05:02:23;;;;;;;8.27;3.33;;;;;;;;;;5008825;28;20050;-67
2021/09/02 05:04:51;;;;;;;7.88;3.17;;;;;;;;;;5007910;28;20500;-67
2021/09/02 05:07:21;;;;;;;5.55;3.25;;;;;;;;;;5007594;28;20046;-67
2021/09/02 05:09:49;;;;;;;4.90;2.97;;;;;;;;;;5012515;28;20041;-67
2021/09/02 05:12:18;;;;;;;7.88;3.28;;;;;;;;;;5007837;28;20165;-67
2021/09/02 05:14:47;;;;;;;6.20;3.15;;;;;;;;;;5012569;28;20121;-67
2021/09/02 05:17:15;;;;;;;5.57;3.03;;;;;;;;;;5011013;28;20050;-69
2021/09/02 05:19:43;;;;;;;7.70;3.92;;;;;;;;;;5007358;28;20057;-67
2021/09/02 05:22:11;;;;;;;8.98;3.47;;;;;;;;;;4995929;28;20056;-67
2021/09/02 05:24:41;;;;;;;11.30;3.45;;;;;;;;;;5011203;28;20072;-67
2021/09/02 05:27:09;;;;;;;6.72;3.53;;;;;;;;;;5010104;28;20050;-72
2021/09/02 05:29:38;;;;;;;5.07;3.30;;;;;;;;;;5011171;28;20137;-68
2021/09/02 05:32:06;;;;;;;10.50;3.78;;;;;;;;;;5007143;28;20046;-68
2021/09/02 05:34:35;;;;;;;6.10;3.28;;;;;;;;;;5007049;28;20097;-67
2021/09/02 05:37:03;;;;;;;5.18;3.47;;;;;;;;;;4991040;28;20519;-68
2021/09/02 05:39:32;;;;;;;7.45;3.72;;;;;;;;;;4988282;28;20480;-67
2021/09/02 05:42:02;;;;;;;6.22;3.42;;;;;;;;;;4992466;28;20053;-72
2021/09/02 05:44:30;;;;;;;6.75;3.13;;;;;;;;;;5004273;28;20064;-72
2021/09/02 05:46:59;;;;;;;7.85;4.30;;;;;;;;;;4991564;28;20141;-69
2021/09/02 05:49:27;;;;;;;7.63;3.58;;;;;;;;;;4997128;28;20116;-68
2021/09/02 05:51:55;;;;;;;8.60;3.45;;;;;;;;;;5004801;28;20562;-69
2021/09/02 05:54:27;;;;;;;6.20;3.33;;;;;;;;;;5000337;28;20049;-70
2021/09/02 05:56:56;;;;;;;8.75;3.75;;;;;;;;;;4994022;28;20060;-71
2021/09/02 05:59:25;;;;;;;7.72;3.72;;;;;;;;;;5004044;28;20050;-69
2021/09/02 06:01:54;;;;;;;6.32;3.33;;;;;;;;;;5001274;28;20070;-70
2021/09/02 06:04:22;;;;;;;8.93;3.75;;;;;;;;;;5004021;28;20050;-68
2021/09/02 06:06:51;;;;;;;7.50;3.33;;;;;;;;;;4997046;28;20423;-67
2021/09/02 06:09:19;;;;;;;5.50;3.35;;;;;;;;;;4999215;28;20046;-72
2021/09/02 06:11:47;;;;;;;7.35;3.70;;;;;;;;;;5002965;28;20645;-67
2021/09/02 06:14:15;;;;;;;7.93;3.92;;;;;;;;;;4996113;28;20339;-70
2021/09/02 06:16:45;;;;;;;11.02;3.78;;;;;;;;;;5002122;28;20053;-67
2021/09/02 06:19:14;;;;;;;7.97;3.95;;;;;;;;;;4998516;28;20046;-67
2021/09/02 06:21:42;;;;;;;8.93;4.53;;;;;;;;;;5005225;28;20543;-69
2021/09/02 06:24:10;;;;;;;12.48;4.85;;;;;;;;;;4998928;28;20064;-68
2021/09/02 06:26:39;;;;;;;13.75;5.85;;;;;;;;;;5005949;28;20111;-67
2021/09/02 06:29:07;;;;;;;11.90;4.90;;;;;;;;;;4996801;28;20506;-71
2021/09/02 06:31:35;;;;;;;10.35;4.75;;;;;;;;;;5003695;28;20064;-69
2021/09/02 06:34:05;;;;;;;12.23;4.75;;;;;;;;;;4999082;28;20085;-71
2021/09/02 06:36:33;;;;;;;12.30;5.03;;;;;;;;;;5005584;28;20056;-68
2021/09/02 06:39:01;;;;;;;10.75;4.80;;;;;;;;;;5003865;28;20050;-70
2021/09/02 06:41:30;;;;;;;11.65;5.03;;;;;;;;;;5004431;28;20762;-69
2021/09/02 06:43:59;;;;;;;9.52;5.30;;;;;;;;;;5001609;28;20429;-72
2021/09/02 06:46:27;;;;;;;12.38;5.93;;;;;;;;;;5005092;28;20579;-68
2021/09/02 06:48:56;;;;;;;11.15;5.03;;;;;;;;;;4999333;28;20100;-72
2021/09/02 06:51:26;;;;;;;11.10;5.43;;;;;;;;;;5001180;28;20038;-71
2021/09/02 06:53:55;;;;;;;10.07;5.30;;;;;;;;;;4999272;28;20550;-71
2021/09/02 06:56:23;;;;;;;12.93;5.50;;;;;;;;;;5001747;28;20159;-70
2021/09/02 06:58:52;;;;;;;11.32;5.60;;;;;;;;;;4999164;28;20398;-71
2021/09/02 07:01:20;;;;;;;12.10;5.60;;;;;;;;;;5003555;28;20081;-75
2021/09/02 07:03:50;;;;;;;13.93;5.95;;;;;;;;;;4995293;28;20050;-72
2021/09/02 07:06:18;;;;;;;10.88;5.85;;;;;;;;;;4999299;28;20049;-71
2021/09/02 07:08:48;;;;;;;11.70;5.60;;;;;;;;;;5001538;28;20073;-68
2021/09/02 07:11:17;;;;;;;13.15;5.85;;;;;;;;;;5003679;28;20390;-68
2021/09/02 07:13:45;;;;;;;14.10;5.78;;;;;;;;;;4999463;28;20137;-68
2021/09/02 07:16:14;;;;;;;11.13;6.03;;;;;;;;;;5000787;28;20045;-71
2021/09/02 07:18:42;;;;;;;15.07;5.93;;;;;;;;;;5000798;28;20121;-72
2021/09/02 07:21:11;;;;;;;10.73;5.68;;;;;;;;;;4991802;28;20050;-73
2021/09/02 07:23:40;;;;;;;11.15;6.15;;;;;;;;;;4996857;28;20442;-68
2021/09/02 07:26:09;;;;;;;16.58;5.80;;;;;;;;;;5003007;28;20138;-70
2021/09/02 07:28:38;;;;;;;12.75;6.07;;;;;;;;;;4994117;28;20108;-70
2021/09/02 07:31:07;;;;;;;12.38;5.97;;;;;;;;;;5001655;28;20582;-70
2021/09/02 07:33:35;;;;;;;13.60;6.05;;;;;;;;;;5000496;28;20147;-69
2021/09/02 07:36:04;;;;;;;12.10;5.25;;;;;;;;;;5004671;28;20542;-68
2021/09/02 07:38:32;;;;;;;13.68;6.38;;;;;;;;;;5004250;28;20069;-72
2021/09/02 07:41:01;;;;;;;11.50;5.97;;;;;;;;;;5002844;28;20604;-68
2021/09/02 07:43:31;;;;;;;13.40;6.07;;;;;;;;;;4999492;28;20058;-69
2021/09/02 07:46:00;;;;;;;10.32;5.95;;;;;;;;;;5004018;28;20046;-72
2021/09/02 07:48:29;;;;;;;11.68;5.70;;;;;;;;;;5003434;28;20050;-75
2021/09/02 07:50:57;;;;;;;12.10;6.68;;;;;;;;;;4994072;28;20533;-69
2021/09/02 07:53:26;;;;;;;13.23;6.10;;;;;;;;;;4997727;28;20339;-74
2021/09/02 07:55:55;;;;;;;13.48;6.20;;;;;;;;;;5001721;28;20362;-68
2021/09/02 07:58:23;;;;;;;12.88;7.03;;;;;;;;;;5000312;28;20046;-68
2021/09/02 08:00:53;;;;;;;9.77;4.78;;;;;;;;;;4998179;28;20054;-71
2021/09/02 08:03:22;;;;;;;10.18;5.32;;;;;;;;;;5002196;28;20853;-69
2021/09/02 08:05:51;;;;;;;14.60;7.00;;;;;;;;;;4994644;28;20054;-68
2021/09/02 08:08:20;;;;;;;10.63;5.82;;;;;;;;;;4992938;28;20069;-71
2021/09/02 08:10:49;;;;;;;10.57;5.45;;;;;;;;;;4999705;28;20046;-69
2021/09/02 08:13:18;;;;;;;9.73;5.28;;;;;;;;;;5003549;28;20400;-68
2021/09/02 08:15:47;;;;;;;9.77;5.20;;;;;;;;;;5003925;28;20119;-69
2021/09/02 08:18:17;;;;;;;11.52;5.40;;;;;;;;;;4995220;28;20053;-68
2021/09/02 08:20:46;;;;;;;11.05;5.85;;;;;;;;;;4994038;28;20046;-70
2021/09/02 08:23:15;;;;;;;13.18;6.47;;;;;;;;;;5000214;28;20124;-68
2021/09/02 08:25:43;;;;;;;8.35;5.30;;;;;;;;;;5003975;28;20123;-69
2021/09/02 08:28:12;;;;;;;13.77;6.18;;;;;;;;;;4994161;28;20132;-68
2021/09/02 08:30:41;;;;;;;10.18;4.95;;;;;;;;;;5002412;28;20046;-69
2021/09/02 08:33:10;;;;;;;10.88;6.10;;;;;;;;;;5003581;28;20054;-69
2021/09/02 08:35:40;;;;;;;8.63;5.05;;;;;;;;;;5003212;28;20282;-69
2021/09/02 08:38:10;;;;;;;11.00;4.90;;;;;;;;;;4992221;28;20049;-73
2021/09/02 08:40:41;;;;;;;10.48;5.93;;;;;;;;;;5003741;28;20447;-70
2021/09/02 08:43:10;;;;;;;10.07;5.15;;;;;;;;;;4998036;28;20482;-67
2021/09/02 08:45:59;;;;;;;13.43;6.15;;;;;;;;;;4992346;28;20062;-68
2021/09/02 08:48:27;;;;;;;7.78;4.60;;;;;;;;;;4996654;28;20498;-68
2021/09/02 08:50:58;;;;;;;8.18;4.15;;;;;;;;;;5006798;28;21222;-69
2021/09/02 08:53:26;;;;;;;6.72;4.07;;;;;;;;;;5001644;28;20050;-69
2021/09/02 08:55:55;;;;;;;8.27;4.30;;;;;;;;;;5007874;28;20046;-69
2021/09/02 08:58:24;;;;;;;8.10;4.85;;;;;;;;;;5000376;28;20064;-68
2021/09/02 09:00:53;;;;;;;7.47;3.45;;;;;;;;;;5005837;28;20468;-69
2021/09/02 09:03:22;;;;;;;9.00;3.90;;;;;;;;;;4997521;28;20042;-68
2021/09/02 09:05:54;;;;;;;8.55;4.25;;;;;;;;;;5007371;28;20045;-68
2021/09/02 09:08:32;;;;;;;9.07;4.38;;;;;;;;;;5006801;28;20628;-69
2021/09/02 09:11:15;;;;;;;9.35;4.20;;;;;;;;;;5008634;28;20050;-69
2021/09/02 09:13:44;;;;;;;7.60;4.43;;;;;;;;;;5008581;28;20108;-70
2021/09/02 09:16:13;;;;;;;8.65;4.97;;;;;;;;;;5008098;28;20100;-69
2021/09/02 09:18:43;;;;;;;6.68;3.90;;;;;;;;;;4992090;28;20102;-68
2021/09/02 09:21:13;;;;;;;8.38;4.03;;;;;;;;;;5000690;28;20133;-70
2021/09/02 09:23:57;;;;;;;7.50;3.70;;;;;;;;;;5007574;28;20486;-69
2021/09/02 09:26:26;;;;;;;9.77;4.13;;;;;;;;;;5007495;28;20064;-70
2021/09/02 09:28:57;;;;;;;9.05;4.47;;;;;;;;;;5006240;28;20454;-68
2021/09/02 09:31:30;;;;;;;6.57;3.83;;;;;;;;;;5000567;28;20058;-70
2021/09/02 09:34:00;;;;;;;6.50;4.30;;;;;;;;;;5005735;28;20052;-69
2021/09/02 09:36:29;;;;;;;7.32;4.15;;;;;;;;;;4999036;28;20053;-73
2021/09/02 09:39:04;;;;;;;8.07;4.00;;;;;;;;;;5004636;28;20054;-68
2021/09/02 09:41:37;;;;;;;8.10;3.67;;;;;;;;;;4999543;28;20050;-71
2021/09/02 09:44:17;;;;;;;7.47;3.78;;;;;;;;;;4999769;28;20120;-68
2021/09/02 09:47:06;;;;;;;7.63;3.67;;;;;;;;;;5004921;28;20528;-69
2021/09/02 09:49:42;;;;;;;8.48;3.83;;;;;;;;;;5000730;28;20073;-69
2021/09/02 09:52:35;;;;;;;7.75;4.22;;;;;;;;;;5002871;28;20054;-71
2021/09/02 09:55:07;;;;;;;8.00;3.95;;;;;;;;;;4979996;28;20069;-68
2021/09/02 09:57:37;;;;;;;8.70;3.97;;;;;;;;;;5000057;28;20046;-70
2021/09/02 10:00:07;;;;;;;7.80;4.32;;;;;;;;;;5005561;28;20490;-67
2021/09/02 10:02:37;;;;;;;7.80;4.10;;;;;;;;;;5001199;28;20518;-72
2021/09/02 10:05:06;;;;;;;7.78;4.22;;;;;;;;;;5001488;28;20054;-71
2021/09/02 10:07:35;;;;;;;7.18;3.85;;;;;;;;;;4989751;28;20141;-72
2021/09/02 10:10:05;;;;;;;7.13;3.65;;;;;;;;;;4998319;28;20088;-71
2021/09/02 10:12:35;;;;;;;7.72;4.18;;;;;;;;;;4998918;28;20085;-69
2021/09/02 10:15:05;;;;;;;8.68;3.70;;;;;;;;;;5003516;28;20486;-68
2021/09/02 10:17:34;;;;;;;6.68;3.40;;;;;;;;;;5009122;28;20038;-68
2021/09/02 10:20:03;;;;;;;8.02;3.75;;;;;;;;;;5002381;28;20053;-67
2021/09/02 10:22:34;;;;;;;6.43;3.33;;;;;;;;;;5000734;28;20050;-68
2021/09/02 10:25:04;;;;;;;6.43;3.58;;;;;;;;;;5004334;28;20150;-68
2021/09/02 10:27:40;;;;;;;5.40;3.45;;;;;;;;;;4998794;28;20046;-69
2021/09/02 10:30:26;;;;;;;5.18;3.25;;;;;;;;;;5003360;28;20505;-69
2021/09/02 10:32:55;;;;;;;8.05;3.28;;;;;;;;;;5006749;28;20049;-69
2021/09/02 10:35:39;;;;;;;7.72;3.25;;;;;;;;;;5006490;28;20053;-69
2021/09/02 10:38:07;;;;;;;5.65;3.53;;;;;;;;;;5000695;28;20057;-69
2021/09/02 10:40:46;;;;;;;6.05;3.53;;;;;;;;;;5005401;28;20085;-70
2021/09/02 10:43:15;;;;;;;4.32;3.00;;;;;;;;;;5004453;28;20046;-70
2021/09/02 10:45:44;;;;;;;5.38;3.13;;;;;;;;;;5006748;28;20108;-69
2021/09/02 10:48:17;;;;;;;5.20;3.05;;;;;;;;;;5008352;28;20165;-68
2021/09/02 10:50:47;;;;;;;6.13;3.42;;;;;;;;;;4993009;28;20521;-68
2021/09/02 10:53:16;;;;;;;5.40;2.72;;;;;;;;;;5004425;28;20057;-67
2021/09/02 10:55:50;;;;;;;4.85;2.75;;;;;;;;;;4999394;28;20042;-68
2021/09/02 10:58:33;;;;;;;4.85;2.42;;;;;;;;;;4995927;28;20050;-69
2021/09/02 11:01:23;;;;;;;5.28;2.95;;;;;;;;;;4992325;28;20046;-71
2021/09/02 11:03:52;;;;;;;5.78;3.08;;;;;;;;;;4997325;28;20579;-72
2021/09/02 11:06:21;;;;;;;4.10;3.08;;;;;;;;;;4997146;28;20096;-68
2021/09/02 11:08:49;;;;;;;6.95;3.00;;;;;;;;;;4998318;28;20185;-68
2021/09/02 11:11:19;;;;;;;5.63;3.10;;;;;;;;;;4999937;28;20053;-68
2021/09/02 11:13:48;;;;;;;4.82;2.92;;;;;;;;;;4999372;28;20050;-68
2021/09/02 11:16:18;;;;;;;5.18;2.90;;;;;;;;;;5002220;28;20387;-72
2021/09/02 11:18:48;;;;;;;5.03;3.08;;;;;;;;;;5001863;28;20042;-70
2021/09/02 11:21:18;;;;;;;6.28;2.83;;;;;;;;;;5002125;28;20367;-70
2021/09/02 11:23:48;;;;;;;5.32;3.30;;;;;;;;;;5003948;28;20503;-69
2021/09/02 11:26:30;;;;;;;5.95;3.40;;;;;;;;;;5004541;28;20058;-70
2021/09/02 11:28:58;;;;;;;4.40;3.15;;;;;;;;;;4998459;28;20042;-70
2021/09/02 11:31:28;;;;;;;7.07;3.30;;;;;;;;;;4998536;28;20103;-71
2021/09/02 11:33:56;;;;;;;4.57;2.95;;;;;;;;;;5002801;28;20409;-70
2021/09/02 11:36:25;;;;;;;5.40;3.28;;;;;;;;;;5006057;28;20142;-71
2021/09/02 11:39:01;;;;;;;3.90;2.47;;;;;;;;;;4993744;28;20062;-70
2021/09/02 11:41:30;;;;;;;4.25;2.70;;;;;;;;;;4988960;28;20099;-67
2021/09/02 11:43:58;;;;;;;4.00;2.78;;;;;;;;;;5003805;28;20060;-71
2021/09/02 11:46:28;;;;;;;4.78;3.10;;;;;;;;;;5005189;28;20099;-70
2021/09/02 11:48:57;;;;;;;5.82;3.10;;;;;;;;;;4995045;28;20065;-70
2021/09/02 11:51:26;;;;;;;8.57;2.78;;;;;;;;;;5004557;28;20069;-69
2021/09/02 11:54:05;;;;;;;4.20;2.85;;;;;;;;;;4997260;28;20112;-70
2021/09/02 11:56:33;;;;;;;6.25;2.97;;;;;;;;;;4996317;28;20096;-71
2021/09/02 11:59:03;;;;;;;4.88;2.70;;;;;;;;;;5001891;28;20082;-68
2021/09/02 12:01:33;;;;;;;5.72;2.95;;;;;;;;;;4994000;28;20077;-72
2021/09/02 12:04:02;;;;;;;5.95;3.40;;;;;;;;;;4995947;28;20053;-68
2021/09/02 12:06:31;;;;;;;4.30;2.72;;;;;;;;;;5002011;28;20054;-68
2021/09/02 12:09:00;;;;;;;5.43;3.08;;;;;;;;;;4994184;28;20050;-68
2021/09/02 12:11:30;;;;;;;4.45;2.70;;;;;;;;;;4995152;28;20057;-69
2021/09/02 12:14:14;;;;;;;5.53;2.67;;;;;;;;;;5002226;28;20049;-70
2021/09/02 12:16:44;;;;;;;4.75;3.15;;;;;;;;;;4998865;28;20140;-68
2021/09/02 12:19:12;;;;;;;6.95;2.95;;;;;;;;;;4996266;28;20077;-69
2021/09/02 12:21:41;;;;;;;5.10;2.92;;;;;;;;;;4996651;28;20048;-70
2021/09/02 12:24:10;;;;;;;4.50;2.80;;;;;;;;;;4997426;28;20054;-68
2021/09/02 12:26:48;;;;;;;5.55;3.00;;;;;;;;;;5002967;28;20475;-68
2021/09/02 12:29:17;;;;;;;4.40;2.60;;;;;;;;;;5002078;28;20050;-68
2021/09/02 12:31:47;;;;;;;3.95;3.05;;;;;;;;;;5006355;28;20074;-68
2021/09/02 12:34:21;;;;;;;3.75;2.60;;;;;;;;;;5007446;28;20049;-68
2021/09/02 12:37:00;;;;;;;6.22;2.90;;;;;;;;;;4995556;28;20042;-68
2021/09/02 12:39:30;;;;;;;4.53;2.85;;;;;;;;;;5007373;28;20077;-71
2021/09/02 12:41:59;;;;;;;3.17;2.15;;;;;;;;;;5003839;28;20124;-71
2021/09/02 12:44:29;;;;;;;4.43;2.67;;;;;;;;;;4994410;28;20061;-71
2021/09/02 12:47:00;;;;;;;4.90;2.70;;;;;;;;;;5002809;28;21576;-72
2021/09/02 12:49:30;;;;;;;4.68;2.40;;;;;;;;;;4999702;28;20073;-70
2021/09/02 12:52:03;;;;;;;4.28;2.60;;;;;;;;;;5003297;28;20085;-76
2021/09/02 12:54:31;;;;;;;4.55;2.47;;;;;;;;;;5002700;28;20108;-69
2021/09/02 12:57:00;;;;;;;5.43;2.60;;;;;;;;;;5005746;28;20260;-68
2021/09/02 12:59:28;;;;;;;3.78;2.38;;;;;;;;;;5005368;28;20104;-70
2021/09/02 13:01:56;;;;;;;4.78;2.90;;;;;;;;;;5006459;28;20108;-70
2021/09/02 13:04:26;;;;;;;4.28;2.55;;;;;;;;;;5003275;28;20086;-74
2021/09/02 13:06:55;;;;;;;4.10;2.45;;;;;;;;;;4998225;28;20494;-73
2021/09/02 13:09:23;;;;;;;4.13;2.85;;;;;;;;;;4999600;28;20077;-74
2021/09/02 13:11:52;;;;;;;3.72;2.63;;;;;;;;;;5005847;28;20050;-74
2021/09/02 13:14:22;;;;;;;6.63;3.28;;;;;;;;;;4998041;28;20065;-74
2021/09/02 13:16:51;;;;;;;5.50;3.75;;;;;;;;;;5002724;28;20120;-74
2021/09/02 13:19:20;;;;;;;4.22;2.28;;;;;;;;;;5006574;28;20093;-74
2021/09/02 13:21:49;;;;;;;5.70;3.60;;;;;;;;;;5001394;28;20129;-74
2021/09/02 13:24:18;;;;;;;3.78;2.55;;;;;;;;;;5005557;28;20061;-74
2021/09/02 13:26:46;;;;;;;6.07;3.63;;;;;;;;;;5005274;28;20165;-75
2021/09/02 13:29:15;;;;;;;3.88;2.60;;;;;;;;;;5006412;28;20095;-75
2021/09/02 13:31:43;;;;;;;3.58;2.42;;;;;;;;;;5009398;28;20791;-74
2021/09/02 13:34:12;;;;;;;4.32;2.22;;;;;;;;;;5004203;28;20161;-75
2021/09/02 13:36:40;;;;;;;4.43;2.72;;;;;;;;;;5010862;28;20140;-75
2021/09/02 13:39:10;;;;;;;4.78;2.45;;;;;;;;;;5010681;28;20517;-75
2021/09/02 13:41:38;;;;;;;4.00;2.35;;;;;;;;;;5011059;28;20076;-74
2021/09/02 13:44:07;;;;;;;3.95;2.17;;;;;;;;;;5004565;28;20086;-75
2021/09/02 13:46:35;;;;;;;4.13;2.72;;;;;;;;;;5006573;28;20077;-76
2021/09/02 13:49:04;;;;;;;5.45;2.28;;;;;;;;;;5006871;28;20149;-74
2021/09/02 13:51:32;;;;;;;4.35;2.20;;;;;;;;;;5005269;28;20081;-75
2021/09/02 13:54:00;;;;;;;4.07;2.28;;;;;;;;;;5001597;28;20078;-73
2021/09/02 13:56:30;;;;;;;4.60;2.88;;;;;;;;;;5009425;28;20104;-75
2021/09/02 13:58:58;;;;;;;3.78;2.67;;;;;;;;;;5009071;28;20072;-75
2021/09/02 14:01:27;;;;;;;3.00;2.28;;;;;;;;;;5008548;28;20485;-74
2021/09/02 14:03:56;;;;;;;6.80;2.63;;;;;;;;;;5007009;28;20157;-73
2021/09/02 14:06:24;;;;;;;4.63;2.70;;;;;;;;;;5005461;28;20050;-74
2021/09/02 14:08:52;;;;;;;5.43;3.10;;;;;;;;;;5008686;28;20080;-73
2021/09/02 14:11:21;;;;;;;3.08;2.58;;;;;;;;;;5006018;28;20045;-75
2021/09/02 14:13:50;;;;;;;5.20;2.92;;;;;;;;;;5007413;28;20073;-76
2021/09/02 14:16:19;;;;;;;5.80;3.45;;;;;;;;;;5003771;28;20045;-74
2021/09/02 14:18:47;;;;;;;4.38;2.58;;;;;;;;;;5008314;28;20054;-73
2021/09/02 14:21:16;;;;;;;4.97;3.40;;;;;;;;;;5008169;28;20380;-74
2021/09/02 14:23:44;;;;;;;6.00;3.30;;;;;;;;;;5008397;28;20136;-73
2021/09/02 14:26:12;;;;;;;4.57;2.97;;;;;;;;;;5005965;28;20137;-75
2021/09/02 14:28:41;;;;;;;5.15;2.72;;;;;;;;;;5000768;28;20111;-76
2021/09/02 14:31:11;;;;;;;3.35;2.42;;;;;;;;;;5008897;28;20104;-74
2021/09/02 14:33:39;;;;;;;5.60;2.63;;;;;;;;;;5007954;28;20154;-74
2021/09/02 14:36:08;;;;;;;5.03;3.13;;;;;;;;;;5009162;28;20133;-74
2021/09/02 14:38:36;;;;;;;5.07;2.58;;;;;;;;;;5008584;28;20058;-74
2021/09/02 14:41:05;;;;;;;7.95;2.83;;;;;;;;;;4999777;28;20600;-73
2021/09/02 14:43:33;;;;;;;5.32;2.65;;;;;;;;;;4999879;28;20053;-73
2021/09/02 14:46:02;;;;;;;4.47;2.63;;;;;;;;;;5009568;28;20042;-73
2021/09/02 14:48:33;;;;;;;7.55;2.97;;;;;;;;;;5010392;28;20160;-74
2021/09/02 14:51:02;;;;;;;5.93;2.63;;;;;;;;;;5009616;28;20081;-73
2021/09/02 14:53:30;;;;;;;5.88;2.55;;;;;;;;;;5009477;28;20046;-72
2021/09/02 14:55:59;;;;;;;3.53;2.67;;;;;;;;;;5011905;28;20049;-73